Time,TemperatureF,DewpointF,PressureIn,WindDirection,WindDirectionDegrees,WindSpeedMPH,WindSpeedGustMPH,Humidity,HourlyPrecipIn,Conditions,Clouds,dailyrainin,SoftwareType,DateUTC
2013-10-21 00:03:00,74.8,73.0,29.95,ENE,57,0.0,4.0,94,0.00,,,0.00,weatherlink.com 1.10,2013-10-21 04:03:00,
2013-10-21 00:18:00,74.7,73.0,29.95,ENE,57,2.0,3.0,94,0.00,,,0.00,weatherlink.com 1.10,2013-10-21 04:18:00,
2013-10-21 00:34:00,74.5,73.0,29.95,NE,53,1.0,3.0,95,0.00,,,0.00,weatherlink.com 1.10,2013-10-21 04:34:00,
2013-10-21 00:49:00,74.4,73.0,29.95,NE,53,0.0,2.0,95,0.00,,,0.00,weatherlink.com 1.10,2013-10-21 04:49:00,
2013-10-21 01:04:00,74.1,73.0,29.94,NE,53,1.0,3.0,95,0.00,,,0.00,weatherlink.com 1.10,2013-10-21 05:04:00,
2013-10-21 01:19:00,74.0,73.0,29.94,NE,53,0.0,2.0,95,0.00,,,0.00,weatherlink.com 1.10,2013-10-21 05:19:00,
2013-10-21 01:34:00,74.0,73.0,29.93,NE,53,0.0,1.0,95,0.00,,,0.00,weatherlink.com 1.10,2013-10-21 05:34:00,
2013-10-21 01:49:00,74.0,73.0,29.94,NE,53,0.0,0.0,95,0.00,,,0.00,weatherlink.com 1.10,2013-10-21 05:49:00,
2013-10-21 02:04:00,73.9,72.0,29.94,NE,53,0.0,1.0,95,0.00,,,0.00,weatherlink.com 1.10,2013-10-21 06:04:00,
2013-10-21 02:19:00,73.8,73.0,29.93,NE,53,0.0,0.0,96,0.00,,,0.00,weatherlink.com 1.10,2013-10-21 06:19:00,
2013-10-21 02:34:00,73.8,73.0,29.93,NE,53,1.0,2.0,96,0.00,,,0.00,weatherlink.com 1.10,2013-10-21 06:34:00,
2013-10-21 02:49:00,73.8,73.0,29.93,NE,53,1.0,3.0,96,0.00,,,0.00,weatherlink.com 1.10,2013-10-21 06:49:00,
2013-10-21 03:04:00,73.6,72.0,29.93,NE,53,0.0,2.0,96,0.00,,,0.00,weatherlink.com 1.10,2013-10-21 07:04:00,
2013-10-21 03:19:00,73.4,72.0,29.93,NE,53,0.0,1.0,96,0.00,,,0.00,weatherlink.com 1.10,2013-10-21 07:19:00,
2013-10-21 03:34:00,73.3,72.0,29.93,NE,53,0.0,1.0,96,0.00,,,0.00,weatherlink.com 1.10,2013-10-21 07:34:00,
2013-10-21 03:49:00,73.3,72.0,29.93,NE,53,0.0,1.0,96,0.00,,,0.00,weatherlink.com 1.10,2013-10-21 07:49:00,
2013-10-21 04:04:00,73.4,72.0,29.93,NE,53,3.0,3.0,96,0.00,,,0.00,weatherlink.com 1.10,2013-10-21 08:04:00,
2013-10-21 04:19:00,73.5,72.0,29.93,ENE,63,1.0,3.0,96,0.00,,,0.00,weatherlink.com 1.10,2013-10-21 08:19:00,
2013-10-21 04:34:00,73.3,72.0,29.93,ENE,59,0.0,2.0,96,0.00,,,0.00,weatherlink.com 1.10,2013-10-21 08:34:00,
2013-10-21 04:49:00,73.2,72.0,29.93,ENE,59,0.0,1.0,97,0.00,,,0.00,weatherlink.com 1.10,2013-10-21 08:49:00,
2013-10-21 05:04:00,73.1,72.0,29.93,ENE,59,0.0,1.0,97,0.00,,,0.00,weatherlink.com 1.10,2013-10-21 09:04:00,
2013-10-21 05:19:00,72.8,72.0,29.93,ENE,59,0.0,0.0,96,0.01,,,0.01,weatherlink.com 1.10,2013-10-21 09:19:00,
2013-10-21 05:34:00,72.8,72.0,29.94,ENE,59,0.0,1.0,97,0.01,,,0.01,weatherlink.com 1.10,2013-10-21 09:34:00,
2013-10-21 05:49:00,72.7,72.0,29.94,ENE,59,0.0,1.0,97,0.01,,,0.01,weatherlink.com 1.10,2013-10-21 09:49:00,
2013-10-21 06:04:00,72.2,71.0,29.94,ENE,59,0.0,0.0,96,0.01,,,0.01,weatherlink.com 1.10,2013-10-21 10:04:00,
2013-10-21 06:19:00,71.7,71.0,29.94,ENE,59,0.0,0.0,97,0.00,,,0.01,weatherlink.com 1.10,2013-10-21 10:19:00,
2013-10-21 06:34:00,71.5,70.0,29.94,ENE,59,0.0,0.0,96,0.00,,,0.01,weatherlink.com 1.10,2013-10-21 10:34:00,
2013-10-21 06:49:00,71.1,70.0,29.95,ENE,59,0.0,0.0,96,0.00,,,0.01,weatherlink.com 1.10,2013-10-21 10:49:00,
2013-10-21 07:04:00,70.8,70.0,29.95,ENE,59,0.0,0.0,96,0.00,,,0.01,weatherlink.com 1.10,2013-10-21 11:04:00,
2013-10-21 07:19:00,70.7,70.0,29.96,ENE,59,0.0,0.0,96,0.00,,,0.01,weatherlink.com 1.10,2013-10-21 11:19:00,
2013-10-21 07:34:00,71.0,70.0,29.96,ENE,59,0.0,0.0,97,0.00,,,0.01,weatherlink.com 1.10,2013-10-21 11:34:00,
2013-10-21 07:49:00,71.4,71.0,29.96,ENE,59,0.0,0.0,97,0.00,,,0.01,weatherlink.com 1.10,2013-10-21 11:49:00,
2013-10-21 08:04:00,71.9,71.0,29.96,ENE,59,0.0,1.0,97,0.00,,,0.01,weatherlink.com 1.10,2013-10-21 12:04:00,
2013-10-21 08:19:00,72.7,72.0,29.97,ENE,59,0.0,0.0,97,0.00,,,0.01,weatherlink.com 1.10,2013-10-21 12:19:00,
2013-10-21 08:34:00,74.2,74.0,29.97,ENE,60,0.0,1.0,98,0.00,,,0.01,weatherlink.com 1.10,2013-10-21 12:34:00,
2013-10-21 08:49:00,75.1,75.0,29.97,ENE,60,0.0,1.0,98,0.00,,,0.01,weatherlink.com 1.10,2013-10-21 12:49:00,
2013-10-21 09:04:00,75.0,74.0,29.97,East,84,0.0,1.0,97,0.00,,,0.01,weatherlink.com 1.10,2013-10-21 13:04:00,
2013-10-21 09:19:00,75.5,75.0,29.98,SW,232,0.0,4.0,97,0.00,,,0.01,weatherlink.com 1.10,2013-10-21 13:19:00,
2013-10-21 09:34:00,76.2,75.0,29.98,SW,225,1.0,5.0,97,0.00,,,0.01,weatherlink.com 1.10,2013-10-21 13:34:00,
2013-10-21 09:49:00,77.6,76.0,29.98,SW,226,3.0,4.0,96,0.00,,,0.01,weatherlink.com 1.10,2013-10-21 13:49:00,
2013-10-21 10:05:00,78.9,77.0,29.98,SW,222,0.0,6.0,92,0.00,,,0.01,weatherlink.com 1.10,2013-10-21 14:05:00,
2013-10-21 10:20:00,80.2,76.0,29.98,SSW,199,6.0,7.0,88,0.00,,,0.01,weatherlink.com 1.10,2013-10-21 14:20:00,
2013-10-21 10:35:00,81.4,77.0,29.98,SSW,194,5.0,7.0,85,0.00,,,0.01,weatherlink.com 1.10,2013-10-21 14:35:00,
2013-10-21 10:50:00,82.8,76.0,29.98,SSW,194,1.0,6.0,81,0.00,,,0.01,weatherlink.com 1.10,2013-10-21 14:50:00,
2013-10-21 11:05:00,83.9,76.0,29.99,SSW,213,2.0,7.0,76,0.00,,,0.01,weatherlink.com 1.10,2013-10-21 15:05:00,
2013-10-21 11:20:00,84.8,76.0,29.98,WSW,243,0.0,7.0,75,0.00,,,0.01,weatherlink.com 1.10,2013-10-21 15:20:00,
2013-10-21 11:35:00,85.1,75.0,29.98,SW,217,0.0,7.0,71,0.00,,,0.01,weatherlink.com 1.10,2013-10-21 15:35:00,
2013-10-21 11:50:00,85.9,75.0,29.98,SW,229,1.0,6.0,70,0.00,,,0.01,weatherlink.com 1.10,2013-10-21 15:50:00,
2013-10-21 12:05:00,86.0,75.0,29.98,WNW,286,2.0,6.0,69,0.00,,,0.01,weatherlink.com 1.10,2013-10-21 16:05:00,
2013-10-21 12:20:00,87.3,74.0,29.98,SSW,194,2.0,6.0,65,0.00,,,0.01,weatherlink.com 1.10,2013-10-21 16:20:00,
2013-10-21 12:35:00,88.3,75.0,29.97,SW,225,3.0,7.0,64,0.00,,,0.01,weatherlink.com 1.10,2013-10-21 16:35:00,
2013-10-21 12:50:00,86.8,73.0,29.97,SW,232,2.0,6.0,64,0.00,,,0.01,weatherlink.com 1.10,2013-10-21 16:50:00,
2013-10-21 13:05:00,88.5,74.0,29.96,SW,234,5.0,7.0,62,0.00,,,0.01,weatherlink.com 1.10,2013-10-21 17:05:00,
2013-10-21 13:20:00,87.2,74.0,29.96,SSW,213,4.0,6.0,65,0.00,,,0.01,weatherlink.com 1.10,2013-10-21 17:20:00,
2013-10-21 13:35:00,88.3,74.0,29.95,SSW,209,4.0,6.0,62,0.00,,,0.01,weatherlink.com 1.10,2013-10-21 17:35:00,
2013-10-21 13:50:00,89.0,73.0,29.94,NNW,329,1.0,7.0,59,0.00,,,0.01,weatherlink.com 1.10,2013-10-21 17:50:00,
2013-10-21 14:05:00,89.0,73.0,29.93,SSW,211,6.0,8.0,59,0.00,,,0.01,weatherlink.com 1.10,2013-10-21 18:05:00,
2013-10-21 14:20:00,89.3,74.0,29.93,South,186,1.0,6.0,61,0.00,,,0.01,weatherlink.com 1.10,2013-10-21 18:20:00,
2013-10-21 14:35:00,90.1,73.0,29.92,SSW,208,3.0,7.0,57,0.00,,,0.01,weatherlink.com 1.10,2013-10-21 18:35:00,
2013-10-21 14:50:00,89.7,72.0,29.92,SW,219,1.0,8.0,56,0.00,,,0.01,weatherlink.com 1.10,2013-10-21 18:50:00,
2013-10-21 15:05:00,89.7,72.0,29.91,WSW,251,2.0,6.0,57,0.00,,,0.01,weatherlink.com 1.10,2013-10-21 19:05:00,
2013-10-21 15:20:00,90.2,72.0,29.90,NW,304,2.0,6.0,56,0.00,,,0.01,weatherlink.com 1.10,2013-10-21 19:20:00,
2013-10-21 15:35:00,91.3,73.0,29.90,NNW,332,0.0,8.0,56,0.00,,,0.01,weatherlink.com 1.10,2013-10-21 19:35:00,
2013-10-21 15:50:00,89.8,72.0,29.90,WNW,298,2.0,7.0,55,0.00,,,0.01,weatherlink.com 1.10,2013-10-21 19:50:00,
2013-10-21 16:05:00,91.1,73.0,29.89,WSW,251,6.0,6.0,56,0.00,,,0.01,weatherlink.com 1.10,2013-10-21 20:05:00,
2013-10-21 16:20:00,90.2,73.0,29.89,NNW,338,0.0,9.0,58,0.00,,,0.01,weatherlink.com 1.10,2013-10-21 20:20:00,
2013-10-21 16:35:00,90.1,73.0,29.89,West,276,1.0,5.0,57,0.00,,,0.01,weatherlink.com 1.10,2013-10-21 20:35:00,
2013-10-21 16:50:00,89.9,73.0,29.89,WSW,248,0.0,5.0,57,0.00,,,0.01,weatherlink.com 1.10,2013-10-21 20:50:00,
2013-10-21 17:05:00,89.1,72.0,29.89,SSW,213,2.0,5.0,57,0.00,,,0.01,weatherlink.com 1.10,2013-10-21 21:05:00,
2013-10-21 17:20:00,89.1,72.0,29.89,West,279,1.0,5.0,58,0.00,,,0.01,weatherlink.com 1.10,2013-10-21 21:20:00,
2013-10-21 17:35:00,88.8,72.0,29.89,West,273,0.0,5.0,57,0.00,,,0.01,weatherlink.com 1.10,2013-10-21 21:35:00,
2013-10-21 17:50:00,88.3,72.0,29.90,WNW,288,1.0,3.0,59,0.00,,,0.01,weatherlink.com 1.10,2013-10-21 21:50:00,
2013-10-21 18:05:00,87.6,72.0,29.90,West,280,1.0,3.0,60,0.00,,,0.01,weatherlink.com 1.10,2013-10-21 22:05:00,
2013-10-21 18:20:00,86.5,72.0,29.90,West,267,0.0,3.0,63,0.00,,,0.01,weatherlink.com 1.10,2013-10-21 22:20:00,
2013-10-21 18:35:00,86.1,73.0,29.90,West,275,1.0,3.0,64,0.00,,,0.01,weatherlink.com 1.10,2013-10-21 22:35:00,
2013-10-21 18:50:00,85.6,73.0,29.90,West,275,1.0,1.0,66,0.00,,,0.01,weatherlink.com 1.10,2013-10-21 22:50:00,
2013-10-21 19:06:00,84.6,74.0,29.91,NW,323,0.0,2.0,71,0.00,,,0.01,weatherlink.com 1.10,2013-10-21 23:06:00,
2013-10-21 19:21:00,83.7,74.0,29.91,NW,323,0.0,0.0,72,0.00,,,0.01,weatherlink.com 1.10,2013-10-21 23:21:00,
2013-10-21 19:36:00,82.3,74.0,29.92,NW,323,0.0,0.0,76,0.00,,,0.01,weatherlink.com 1.10,2013-10-21 23:36:00,
2013-10-21 19:51:00,80.9,73.0,29.92,NW,323,0.0,1.0,77,0.00,,,0.01,weatherlink.com 1.10,2013-10-21 23:51:00,
2013-10-21 20:06:00,79.6,73.0,29.92,NW,323,0.0,0.0,80,0.00,,,0.01,weatherlink.com 1.10,2013-10-22 00:06:00,
2013-10-21 20:21:00,78.8,73.0,29.93,NW,323,0.0,0.0,81,0.00,,,0.01,weatherlink.com 1.10,2013-10-22 00:21:00,
2013-10-21 20:36:00,78.2,72.0,29.93,NW,323,0.0,1.0,82,0.00,,,0.01,weatherlink.com 1.10,2013-10-22 00:36:00,
2013-10-21 20:51:00,77.5,72.0,29.93,NW,323,0.0,1.0,83,0.00,,,0.01,weatherlink.com 1.10,2013-10-22 00:51:00,
2013-10-21 21:06:00,77.2,72.0,29.94,NW,323,0.0,0.0,83,0.00,,,0.01,weatherlink.com 1.10,2013-10-22 01:06:00,
2013-10-21 21:21:00,76.8,72.0,29.94,NW,323,0.0,0.0,84,0.00,,,0.01,weatherlink.com 1.10,2013-10-22 01:21:00,
2013-10-21 21:36:00,76.4,72.0,29.94,NW,323,0.0,1.0,85,0.00,,,0.01,weatherlink.com 1.10,2013-10-22 01:36:00,
2013-10-21 21:51:00,76.1,71.0,29.94,NW,323,0.0,1.0,85,0.00,,,0.01,weatherlink.com 1.10,2013-10-22 01:51:00,
2013-10-21 22:06:00,75.8,71.0,29.94,NW,323,1.0,1.0,86,0.00,,,0.01,weatherlink.com 1.10,2013-10-22 02:06:00,
2013-10-21 22:21:00,75.7,72.0,29.95,NW,323,0.0,1.0,87,0.00,,,0.01,weatherlink.com 1.10,2013-10-22 02:21:00,
2013-10-21 22:36:00,75.5,71.0,29.94,NW,323,0.0,0.0,87,0.00,,,0.01,weatherlink.com 1.10,2013-10-22 02:36:00,
2013-10-21 22:51:00,75.2,71.0,29.94,NW,323,0.0,1.0,87,0.00,,,0.01,weatherlink.com 1.10,2013-10-22 02:51:00,
2013-10-21 23:06:00,74.9,71.0,29.94,NW,323,0.0,0.0,88,0.00,,,0.01,weatherlink.com 1.10,2013-10-22 03:06:00,
2013-10-21 23:21:00,74.4,71.0,29.93,NW,323,0.0,1.0,88,0.00,,,0.01,weatherlink.com 1.10,2013-10-22 03:21:00,
2013-10-21 23:36:00,74.0,71.0,29.93,NW,323,0.0,0.0,89,0.00,,,0.01,weatherlink.com 1.10,2013-10-22 03:36:00,
2013-10-21 23:51:00,73.7,71.0,29.93,NW,323,0.0,0.0,90,0.00,,,0.01,weatherlink.com 1.10,2013-10-22 03:51:00,